AAL1030 KFLL-KMCO
Flight info
| Callsign | AAL1030 |
|---|---|
| Flight time | N/A |
| Altitude | 20000 |
| Route | FRSBE2 WAPOM MUNGI1 |
| Aircraft | B38M/M-SDE1FGHILORVWXY/HB1 |
Departure
| Time | 2026-05-06 18:53 |
|---|---|
| Airport | Fort Lauderdale Hollywood International Airport (KFLL) |
Arrival
| Time | N/A |
|---|---|
| Airport | Orlando International Airport (KMCO) |
| Time | Latitude | Longitude | Altitude | Speed | Heading |
|---|---|---|---|---|---|
| 2026-05-06 18:32 | 26.07876 | -80.15593 | 18 ft | 0 kts | 90° |
| 2026-05-06 18:49 | 26.07868 | -80.15578 | 18 ft | 5 kts | 140° |
| 2026-05-06 18:50 | 26.07821 | -80.15615 | 18 ft | 15 kts | 256° |
| 2026-05-06 18:50 | 26.07801 | -80.15742 | 18 ft | 15 kts | 274° |
| 2026-05-06 18:50 | 26.07814 | -80.15908 | 19 ft | 27 kts | 270° |
| 2026-05-06 18:50 | 26.07816 | -80.16134 | 19 ft | 31 kts | 271° |
| 2026-05-06 18:51 | 26.07809 | -80.16381 | 19 ft | 33 kts | 265° |
| 2026-05-06 18:51 | 26.07804 | -80.16595 | 19 ft | 15 kts | 264° |
| 2026-05-06 18:51 | 26.07741 | -80.16636 | 20 ft | 0 kts | 167° |
| 2026-05-06 18:51 | 26.07730 | -80.16633 | 20 ft | 5 kts | 167° |
| 2026-05-06 18:52 | 26.07696 | -80.16570 | 21 ft | 16 kts | 91° |
| 2026-05-06 18:52 | 26.07690 | -80.16347 | 23 ft | 56 kts | 88° |
| 2026-05-06 18:52 | 26.07690 | -80.15598 | 18 ft | 138 kts | 90° |
| 2026-05-06 18:52 | 26.07660 | -80.14295 | 154 ft | 196 kts | 91° |
| 2026-05-06 18:53 | 26.07705 | -80.12568 | 623 ft | 240 kts | 89° |
| 2026-05-06 18:53 | 26.07799 | -80.10654 | 1697 ft | 254 kts | 82° |
| 2026-05-06 18:53 | 26.08228 | -80.08801 | 3191 ft | 234 kts | 79° |
| 2026-05-06 18:53 | 26.08413 | -80.07077 | 4566 ft | 229 kts | 82° |
| 2026-05-06 18:54 | 26.09083 | -80.05394 | 5145 ft | 253 kts | 48° |
| 2026-05-06 18:54 | 26.10629 | -80.04373 | 5762 ft | 271 kts | 14° |
| 2026-05-06 18:54 | 26.12532 | -80.04174 | 6613 ft | 278 kts | 5° |
| 2026-05-06 18:54 | 26.14434 | -80.03848 | 7707 ft | 277 kts | 13° |
| 2026-05-06 18:55 | 26.16325 | -80.03502 | 8666 ft | 281 kts | 5° |
| 2026-05-06 18:55 | 26.18268 | -80.03783 | 9602 ft | 284 kts | 339° |
| 2026-05-06 18:55 | 26.19970 | -80.04918 | 10497 ft | 289 kts | 331° |
| 2026-05-06 18:55 | 26.21765 | -80.06070 | 10988 ft | 307 kts | 334° |
| 2026-05-06 18:56 | 26.23640 | -80.07309 | 11417 ft | 325 kts | 329° |
| 2026-05-06 18:56 | 26.25416 | -80.08957 | 12038 ft | 336 kts | 317° |
| 2026-05-06 18:56 | 26.26872 | -80.11013 | 12905 ft | 339 kts | 311° |
| 2026-05-06 18:56 | 26.28275 | -80.13149 | 13702 ft | 340 kts | 316° |
| 2026-05-06 18:57 | 26.29992 | -80.14927 | 14434 ft | 335 kts | 335° |
| 2026-05-06 18:57 | 26.32158 | -80.15398 | 15009 ft | 329 kts | 23° |
| 2026-05-06 18:57 | 26.33080 | -80.13285 | 13877 ft | 358 kts | 104° |
| 2026-05-06 18:57 | 26.32185 | -80.11997 | 8641 ft | 236 kts | 159° |